Dades meteomassalio
Diari Summary for Marc 12, 2017 Units:  Metric    English   Both
« Previous Day
Next Day »
Diari Semanal Mensual Anual Personalitzat
  Maxima: Minima: Mijana:
Temperatura: 18.9 °C 8.8 °C 11 °C
Rosada: 7.9 °C 4.2 °C 5.3 °C
Humitat: 77 % 47 % 68 %
Velocitat del vent: 51.8 km/h 16.1 km/h 32.9 km/h
Racha vent: 51.8 km/h - -
Vent:- - WNW
Pressio: 1017.5 hPa 1013.4 hPa -
Pluja: 0.3 mm    
Historical Graphs
 
 
Tabular Data for Marc 12, 2017
Time Temperature Dew Point Pressure Wind Wind Speed Wind Gust Humidity Rainfall Rate (Hourly) solar Conditions
15:33 18.8 °C 7.9 °C 1013.8 hPa NNW 43.4 km/h 43.4 km/h 49 % 0.0 mm 605.0 W/m2 CLR
15:38 18.9 °C 7.6 °C 1013.8 hPa NNE 37.0 km/h 37.0 km/h 48 % 0.0 mm 564.0 W/m2 CLR
15:43 18.7 °C 7.2 °C 1013.4 hPa NW 48.1 km/h 48.1 km/h 47 % 0.0 mm 564.0 W/m2 CLR
15:49 18.6 °C 7.4 °C 1013.4 hPa NW 29.6 km/h 29.6 km/h 48 % 0.0 mm 626.0 W/m2 CLR
15:54 18.6 °C 7.4 °C 1013.4 hPa NW 40.2 km/h 40.2 km/h 48 % 0.0 mm 278.0 W/m2 CLR
16:00 18.4 °C 7.2 °C 1013.4 hPa NNW 42.6 km/h 42.6 km/h 48 % 0.0 mm 696.0 W/m2 CLR
16:06 18.2 °C 7.3 °C 1013.4 hPa NNW 33.3 km/h 33.3 km/h 49 % 0.0 mm 696.0 W/m2 CLR
18:30 12.3 °C 5.9 °C 1015.1 hPa WNW 42.6 km/h 42.6 km/h 65 % 0.0 mm 35.0 W/m2 BKN
18:35 12.2 °C 6.0 °C 1015.1 hPa NW 40.7 km/h 40.7 km/h 66 % 0.0 mm 25.0 W/m2 BKN
18:40 11.9 °C 5.7 °C 1015.1 hPa WNW 40.7 km/h 40.7 km/h 66 % 0.0 mm 14.0 W/m2 BKN
18:45 11.7 °C 5.7 °C 1015.1 hPa NW 51.8 km/h 51.8 km/h 67 % 0.0 mm 9.0 W/m2 BKN
18:48 11.6 °C 5.8 °C 1015.1 hPa NW 48.1 km/h 48.1 km/h 68 % 0.0 mm 7.0 W/m2 BKN
18:53 11.4 °C 5.7 °C 1015.1 hPa NW 51.8 km/h 51.8 km/h 68 % 0.0 mm 5.0 W/m2 OVC
18:58 11.3 °C 5.8 °C 1015.1 hPa WNW 48.1 km/h 48.1 km/h 69 % 0.0 mm 0.0 W/m2 OVC
19:03 11.2 °C 5.7 °C 1015.5 hPa WNW 33.3 km/h 33.3 km/h 69 % 0.0 mm 0.0 W/m2 OVC
19:08 11.2 °C 5.7 °C 1015.5 hPa NW 31.5 km/h 31.5 km/h 69 % 0.0 mm 0.0 W/m2 OVC
19:13 11.1 °C 5.6 °C 1015.8 hPa WNW 27.8 km/h 27.8 km/h 69 % 0.0 mm 0.0 W/m2 CLR
19:18 11.1 °C 5.8 °C 1016.1 hPa WNW 25.7 km/h 25.7 km/h 70 % 0.0 mm 0.0 W/m2 CLR
19:23 11.0 °C 5.7 °C 1016.1 hPa NW 33.8 km/h 33.8 km/h 70 % 0.0 mm 0.0 W/m2 CLR
19:28 10.9 °C 5.9 °C 1016.1 hPa WNW 25.9 km/h 25.9 km/h 71 % 0.0 mm 0.0 W/m2 CLR
19:33 10.9 °C 5.9 °C 1016.5 hPa West 18.5 km/h 18.5 km/h 71 % 0.0 mm 0.0 W/m2 CLR
19:38 10.9 °C 5.8 °C 1016.5 hPa WNW 24.1 km/h 24.1 km/h 71 % 0.0 mm 0.0 W/m2 CLR
19:43 10.9 °C 5.8 °C 1016.5 hPa NW 22.2 km/h 22.2 km/h 71 % 0.0 mm 0.0 W/m2 CLR
19:48 10.8 °C 5.8 °C 1016.5 hPa West 27.8 km/h 27.8 km/h 71 % 0.0 mm 0.0 W/m2 CLR
19:53 10.8 °C 5.8 °C 1016.8 hPa WNW 27.8 km/h 27.8 km/h 71 % 0.0 mm 0.0 W/m2 CLR
19:58 10.8 °C 5.7 °C 1016.8 hPa West 25.7 km/h 25.7 km/h 71 % 0.0 mm 0.0 W/m2 CLR
20:03 10.7 °C 5.7 °C 1016.8 hPa NW 25.9 km/h 25.9 km/h 71 % 0.0 mm 0.0 W/m2 CLR
20:08 10.7 °C 5.8 °C 1016.5 hPa West 22.2 km/h 22.2 km/h 72 % 0.0 mm 0.0 W/m2 CLR
20:13 10.6 °C 5.5 °C 1016.5 hPa WNW 40.2 km/h 40.2 km/h 71 % 0.0 mm 0.0 W/m2 CLR
20:18 10.4 °C 5.4 °C 1016.5 hPa NW 38.9 km/h 38.9 km/h 71 % 0.0 mm 0.0 W/m2 CLR
20:23 10.3 °C 5.3 °C 1016.5 hPa West 38.9 km/h 38.9 km/h 71 % 0.0 mm 0.0 W/m2 CLR
20:28 10.3 °C 5.2 °C 1016.5 hPa WNW 37.0 km/h 37.0 km/h 71 % 0.0 mm 0.0 W/m2 CLR
20:33 10.2 °C 5.2 °C 1016.5 hPa NW 31.5 km/h 31.5 km/h 71 % 0.0 mm 0.0 W/m2 CLR
20:38 10.2 °C 5.2 °C 1016.5 hPa NW 33.3 km/h 33.3 km/h 71 % 0.0 mm 0.0 W/m2 CLR
20:43 10.2 °C 5.2 °C 1016.5 hPa WNW 35.2 km/h 35.2 km/h 71 % 0.0 mm 0.0 W/m2 CLR
20:48 10.2 °C 4.9 °C 1016.5 hPa NW 43.4 km/h 43.4 km/h 70 % 0.0 mm 0.0 W/m2 CLR
20:53 10.2 °C 4.9 °C 1016.1 hPa WNW 42.6 km/h 42.6 km/h 70 % 0.0 mm 0.0 W/m2 CLR
20:58 10.1 °C 4.9 °C 1016.1 hPa WNW 30.6 km/h 30.6 km/h 70 % 0.0 mm 0.0 W/m2 CLR
21:03 10.1 °C 4.9 °C 1016.1 hPa WNW 33.3 km/h 33.3 km/h 70 % 0.0 mm 0.0 W/m2 CLR
21:08 10.1 °C 4.8 °C 1016.5 hPa WNW 29.6 km/h 29.6 km/h 70 % 0.0 mm 0.0 W/m2 CLR
21:13 10.1 °C 4.8 °C 1016.5 hPa WNW 46.3 km/h 46.3 km/h 70 % 0.0 mm 0.0 W/m2 CLR
21:18 10.1 °C 4.8 °C 1016.5 hPa WNW 31.5 km/h 31.5 km/h 70 % 0.0 mm 0.0 W/m2 CLR
21:23 10.1 °C 4.6 °C 1016.8 hPa WNW 29.6 km/h 29.6 km/h 69 % 0.0 mm 0.0 W/m2 CLR
21:28 10.1 °C 4.6 °C 1016.8 hPa WNW 22.5 km/h 22.5 km/h 69 % 0.0 mm 0.0 W/m2 CLR
21:33 10.1 °C 4.6 °C 1016.8 hPa West 18.5 km/h 18.5 km/h 69 % 0.0 mm 0.0 W/m2 CLR
21:38 10.0 °C 4.6 °C 1016.8 hPa West 17.7 km/h 17.7 km/h 69 % 0.0 mm 0.0 W/m2 CLR
21:43 10.0 °C 4.6 °C 1017.2 hPa SW 16.7 km/h 16.7 km/h 69 % 0.0 mm 0.0 W/m2 CLR
21:48 10.0 °C 4.6 °C 1017.2 hPa WNW 16.1 km/h 16.1 km/h 69 % 0.0 mm 0.0 W/m2 CLR
21:53 10.0 °C 4.6 °C 1017.2 hPa WNW 22.2 km/h 22.2 km/h 69 % 0.0 mm 0.0 W/m2 CLR
21:58 10.0 °C 4.6 °C 1017.2 hPa WNW 31.5 km/h 31.5 km/h 69 % 0.0 mm 0.0 W/m2 CLR
22:03 10.0 °C 4.6 °C 1017.2 hPa WNW 25.9 km/h 25.9 km/h 69 % 0.0 mm 0.0 W/m2 CLR
22:08 10.0 °C 4.6 °C 1016.8 hPa NW 31.5 km/h 31.5 km/h 69 % 0.0 mm 0.0 W/m2 CLR
22:13 9.9 °C 4.5 °C 1016.8 hPa WNW 35.2 km/h 35.2 km/h 69 % 0.0 mm 0.0 W/m2 CLR
22:18 9.9 °C 4.5 °C 1017.2 hPa NW 29.6 km/h 29.6 km/h 69 % 0.0 mm 0.0 W/m2 CLR
22:23 9.9 °C 4.4 °C 1017.2 hPa WNW 30.6 km/h 30.6 km/h 69 % 0.0 mm 0.0 W/m2 CLR
22:28 9.9 °C 4.4 °C 1016.8 hPa NNW 37.0 km/h 37.0 km/h 69 % 0.0 mm 0.0 W/m2 CLR
22:33 9.8 °C 4.6 °C 1016.8 hPa NW 31.5 km/h 31.5 km/h 70 % 0.0 mm 0.0 W/m2 CLR
22:38 9.8 °C 4.3 °C 1017.2 hPa NW 33.3 km/h 33.3 km/h 69 % 0.0 mm 0.0 W/m2 CLR
22:43 9.8 °C 4.3 °C 1017.2 hPa NW 35.2 km/h 35.2 km/h 69 % 0.0 mm 0.0 W/m2 CLR
22:48 9.7 °C 4.3 °C 1017.2 hPa WNW 35.2 km/h 35.2 km/h 69 % 0.0 mm 0.0 W/m2 CLR
22:53 9.7 °C 4.3 °C 1017.2 hPa WNW 33.3 km/h 33.3 km/h 69 % 0.0 mm 0.0 W/m2 CLR
22:54 9.7 °C 4.3 °C 1017.5 hPa West 29.6 km/h 29.6 km/h 69 % 0.0 mm 0.0 W/m2 CLR
22:59 9.7 °C 4.3 °C 1017.5 hPa WNW 24.1 km/h 24.1 km/h 69 % 0.0 mm 0.0 W/m2 CLR
23:04 9.7 °C 4.3 °C 1017.5 hPa West 29.6 km/h 29.6 km/h 69 % 0.0 mm 0.0 W/m2 CLR
23:09 9.6 °C 4.2 °C 1017.2 hPa WNW 38.9 km/h 38.9 km/h 69 % 0.0 mm 0.0 W/m2 CLR
23:14 9.6 °C 4.4 °C 1017.2 hPa WNW 31.5 km/h 31.5 km/h 70 % 0.0 mm 0.0 W/m2 CLR
23:19 9.6 °C 4.3 °C 1017.5 hPa WNW 40.7 km/h 40.7 km/h 70 % 0.0 mm 0.0 W/m2 CLR
23:24 9.5 °C 4.5 °C 1017.2 hPa West 27.8 km/h 27.8 km/h 71 % 0.0 mm 0.0 W/m2 CLR
23:29 9.3 °C 4.7 °C 1017.2 hPa WNW 44.4 km/h 44.4 km/h 73 % 0.0 mm 0.0 W/m2 CLR
23:34 9.1 °C 4.9 °C 1017.5 hPa West 27.4 km/h 27.4 km/h 75 % 0.0 mm 0.0 W/m2 CLR
23:39 9.0 °C 4.8 °C 1017.5 hPa WNW 35.2 km/h 35.2 km/h 75 % 0.0 mm 0.0 W/m2 CLR
23:44 8.9 °C 4.9 °C 1017.5 hPa WNW 33.3 km/h 33.3 km/h 76 % 0.0 mm 0.0 W/m2 CLR
23:49 8.8 °C 4.8 °C 1017.2 hPa WNW 31.5 km/h 31.5 km/h 76 % 0.0 mm 0.0 W/m2 CLR
23:54 8.8 °C 4.9 °C 1017.2 hPa West 29.6 km/h 29.6 km/h 77 % 0.3 mm 0.0 W/m2 RA
23:59 8.8 °C 4.9 °C 1017.2 hPa WNW 31.5 km/h 31.5 km/h 77 % 0.3 mm 0.0 W/m2 CLR
Lo Temps de Massalio
Compliments of Weather Underground - 512 kb